createdAt,value
2022-08-23T00:00:12.950Z,20.25
2022-08-23T00:02:43.395Z,20.40
2022-08-23T00:05:13.672Z,22.50
2022-08-23T00:07:45.682Z,20.67
2022-08-23T00:10:16.582Z,19.33
2022-08-23T00:12:46.032Z,20.15
2022-08-23T00:15:18.140Z,20.38
2022-08-23T00:17:46.675Z,20.80
2022-08-23T00:20:18.670Z,21.08
2022-08-23T00:22:47.726Z,18.33
2022-08-23T00:25:16.744Z,19.27
2022-08-23T00:27:45.853Z,19.05
2022-08-23T00:30:16.136Z,20.63
2022-08-23T00:32:45.511Z,21.00
2022-08-23T00:35:26.608Z,23.02
2022-08-23T00:38:33.422Z,22.95
2022-08-23T00:40:51.219Z,22.02
2022-08-23T00:43:41.760Z,21.73
2022-08-23T00:46:44.922Z,22.35
2022-08-23T00:49:14.510Z,22.15
2022-08-23T00:51:52.432Z,20.35
2022-08-23T00:54:24.565Z,21.38
2022-08-23T00:56:54.961Z,22.00
2022-08-23T00:59:24.417Z,20.23
2022-08-23T01:01:54.743Z,20.70
2022-08-23T01:04:23.375Z,19.85
2022-08-23T01:06:58.439Z,22.08
2022-08-23T01:09:27.321Z,19.67
2022-08-23T01:12:05.209Z,20.23
2022-08-23T01:14:37.709Z,19.50
2022-08-23T01:17:14.993Z,18.23
2022-08-23T01:19:50.028Z,18.95
2022-08-23T01:22:24.141Z,19.45
2022-08-23T01:25:07.438Z,19.00
2022-08-23T01:27:41.285Z,18.75
2022-08-23T01:30:18.609Z,18.92
2022-08-23T01:32:50.108Z,19.58
2022-08-23T01:37:54.622Z,18.63
2022-08-23T01:40:24.691Z,19.55
2022-08-23T01:42:53.541Z,18.58
2022-08-23T01:45:22.723Z,19.95
2022-08-23T01:47:51.259Z,20.08
2022-08-23T01:50:20.628Z,21.77
2022-08-23T01:52:49.131Z,20.13
2022-08-23T01:55:21.946Z,21.17
2022-08-23T01:57:57.036Z,21.00
2022-08-23T02:00:30.874Z,21.65
2022-08-23T02:03:01.111Z,23.55
2022-08-23T02:05:30.786Z,20.60
2022-08-23T02:08:20.263Z,23.25
2022-08-23T02:10:51.052Z,20.55
2022-08-23T02:13:21.989Z,21.40
2022-08-23T02:15:52.544Z,21.30
2022-08-23T02:18:22.717Z,23.23
2022-08-23T02:20:53.774Z,22.17
2022-08-23T02:23:24.214Z,22.58
2022-08-23T02:25:53.783Z,23.17
2022-08-23T02:28:25.796Z,22.05
2022-08-23T02:30:55.261Z,21.83
2022-08-23T02:33:24.319Z,22.25
2022-08-23T02:35:53.093Z,23.27
2022-08-23T02:38:22.505Z,23.48
2022-08-23T02:40:53.056Z,22.50
2022-08-23T02:43:36.440Z,20.25
2022-08-23T02:46:07.219Z,22.40
2022-08-23T02:48:36.415Z,22.90
2022-08-23T02:51:09.331Z,23.90
2022-08-23T02:53:38.638Z,23.83
2022-08-23T02:56:21.292Z,23.10
2022-08-23T02:58:54.205Z,22.92
2022-08-23T03:01:26.663Z,24.20
2022-08-23T03:03:57.958Z,21.48
2022-08-23T03:06:28.302Z,22.00
2022-08-23T03:08:57.520Z,21.83
2022-08-23T03:11:26.678Z,23.48
2022-08-23T03:13:57.678Z,22.98
2022-08-23T03:16:26.850Z,23.48
2022-08-23T03:18:55.350Z,22.10
2022-08-23T03:21:24.082Z,22.35
2022-08-23T03:23:53.819Z,23.48
2022-08-23T03:26:23.076Z,22.33
2022-08-23T03:28:52.251Z,21.63
2022-08-23T03:31:24.268Z,21.30
2022-08-23T03:34:02.911Z,20.55
2022-08-23T03:36:31.645Z,21.65
2022-08-23T03:39:01.456Z,20.27
2022-08-23T03:41:30.734Z,21.10
2022-08-23T03:43:59.542Z,21.45
2022-08-23T03:46:34.233Z,20.92
2022-08-23T03:49:04.228Z,20.30
2022-08-23T03:51:43.898Z,21.60
2022-08-23T03:54:12.456Z,21.88
2022-08-23T03:56:51.156Z,21.17
2022-08-23T03:59:20.141Z,21.15
2022-08-23T04:01:50.286Z,21.92
2022-08-23T04:04:19.267Z,21.67
2022-08-23T04:07:10.861Z,20.67
2022-08-23T04:09:39.645Z,20.20
2022-08-23T04:12:12.100Z,20.35
2022-08-23T04:14:46.990Z,19.33
2022-08-23T04:17:21.002Z,17.55
2022-08-23T04:19:50.725Z,17.75
2022-08-23T04:22:21.564Z,20.75
2022-08-23T04:24:50.579Z,19.58
2022-08-23T04:27:19.108Z,19.27
2022-08-23T04:29:49.224Z,20.73
2022-08-23T04:32:26.644Z,19.23
2022-08-23T04:34:58.896Z,18.70
2022-08-23T04:37:28.706Z,19.42
2022-08-23T04:40:15.795Z,20.20
2022-08-23T04:42:44.682Z,20.33
2022-08-23T04:45:14.340Z,19.23
2022-08-23T04:47:48.223Z,18.77
2022-08-23T04:50:17.669Z,20.42
2022-08-23T04:53:05.074Z,18.98
2022-08-23T04:55:38.918Z,20.00
2022-08-23T04:58:08.364Z,17.48
2022-08-23T05:00:50.855Z,18.48
2022-08-23T05:03:24.352Z,17.90
2022-08-23T05:05:54.427Z,16.77
2022-08-23T05:08:29.044Z,15.63
2022-08-23T05:11:00.542Z,17.48
2022-08-23T05:13:30.064Z,16.45
2022-08-23T05:16:01.502Z,15.32
2022-08-23T05:18:36.388Z,17.67
2022-08-23T05:21:05.333Z,16.48
2022-08-23T05:23:35.586Z,16.77
2022-08-23T05:26:13.576Z,15.60
2022-08-23T05:28:45.452Z,19.83
2022-08-23T05:31:18.838Z,17.55
2022-08-23T05:34:15.105Z,16.75
2022-08-23T05:36:55.626Z,16.60
2022-08-23T05:39:36.203Z,15.60
2022-08-23T05:42:14.505Z,20.83
2022-08-23T05:44:43.759Z,13.93
2022-08-23T05:47:15.926Z,14.45
2022-08-23T05:50:12.368Z,15.95
2022-08-23T05:52:41.664Z,16.92
2022-08-23T05:55:11.163Z,17.70
2022-08-23T05:57:42.622Z,14.80
2022-08-23T06:00:14.186Z,16.02
2022-08-23T06:02:49.341Z,16.55
2022-08-23T06:05:22.949Z,14.80
2022-08-23T06:07:52.232Z,13.43
2022-08-23T06:10:23.751Z,13.80
2022-08-23T06:12:59.055Z,14.20
2022-08-23T06:15:27.608Z,15.82
2022-08-23T06:17:56.458Z,16.05
2022-08-23T06:20:27.151Z,14.75
2022-08-23T06:23:00.502Z,14.40
2022-08-23T06:25:30.330Z,16.35
2022-08-23T06:28:25.844Z,14.93
2022-08-23T06:30:57.435Z,16.58
2022-08-23T06:33:30.576Z,14.95
2022-08-23T06:36:20.676Z,15.00
2022-08-23T06:39:16.972Z,15.90
2022-08-23T06:42:02.160Z,16.30
2022-08-23T06:44:32.752Z,14.93
2022-08-23T06:47:28.647Z,15.23
2022-08-23T06:49:58.669Z,15.63
2022-08-23T06:52:49.632Z,14.95
2022-08-23T06:55:35.042Z,13.73
2022-08-23T06:58:16.413Z,15.13
2022-08-23T07:01:42.060Z,15.75
2022-08-23T07:04:09.685Z,14.20
2022-08-23T07:06:56.926Z,12.55
2022-08-23T07:09:27.300Z,12.27
2022-08-23T07:11:57.144Z,12.00
2022-08-23T07:14:26.023Z,13.95
2022-08-23T07:16:57.424Z,12.25
2022-08-23T07:19:29.301Z,13.07
2022-08-23T07:21:58.534Z,13.55
2022-08-23T07:24:33.004Z,12.18
2022-08-23T07:27:07.308Z,11.75
2022-08-23T07:29:40.571Z,13.85
2022-08-23T07:32:10.957Z,13.57
2022-08-23T07:34:39.918Z,13.00
2022-08-23T07:37:15.540Z,11.60
2022-08-23T07:39:46.474Z,12.23
2022-08-23T07:42:23.394Z,11.55
2022-08-23T07:44:55.497Z,13.35
2022-08-23T07:47:28.703Z,13.25
2022-08-23T07:49:58.969Z,10.88
2022-08-23T07:52:28.330Z,11.65
2022-08-23T07:54:58.465Z,11.70
2022-08-23T07:57:45.702Z,10.85
2022-08-23T08:00:46.747Z,12.25
2022-08-23T08:03:34.007Z,11.70
2022-08-23T08:06:22.041Z,10.68
2022-08-23T08:08:51.415Z,10.57
2022-08-23T08:11:25.488Z,10.38
2022-08-23T08:13:54.904Z,11.10
2022-08-23T08:16:26.908Z,8.68
2022-08-23T08:18:56.870Z,9.50
2022-08-23T08:21:54.483Z,9.10
2022-08-23T08:24:39.631Z,9.18
2022-08-23T08:27:13.930Z,9.32
2022-08-23T08:29:45.111Z,9.30
2022-08-23T08:32:14.311Z,9.80
2022-08-23T08:34:43.913Z,8.30
2022-08-23T08:37:13.457Z,8.38
2022-08-23T08:39:45.934Z,7.65
2022-08-23T08:42:32.596Z,8.77
2022-08-23T08:45:06.219Z,9.38
2022-08-23T08:47:47.170Z,9.50
2022-08-23T08:50:24.239Z,9.57
2022-08-23T08:53:03.331Z,8.68
2022-08-23T08:55:54.818Z,9.15
2022-08-23T08:58:29.262Z,9.25
2022-08-23T09:00:58.359Z,9.90
2022-08-23T09:03:33.900Z,10.35
2022-08-23T09:06:13.793Z,10.87
2022-08-23T09:08:55.074Z,10.15
2022-08-23T09:11:36.698Z,10.27
2022-08-23T09:14:20.921Z,9.45
2022-08-23T09:16:53.440Z,10.18
2022-08-23T09:19:25.130Z,9.18
2022-08-23T09:21:58.813Z,10.00
2022-08-23T09:24:28.321Z,9.85
2022-08-23T09:27:05.856Z,9.00
2022-08-23T09:29:38.584Z,8.63
2022-08-23T09:32:26.694Z,9.57
2022-08-23T09:35:08.072Z,9.65
2022-08-23T09:37:50.831Z,9.20
2022-08-23T09:40:21.648Z,9.05
2022-08-23T09:43:04.807Z,9.48
2022-08-23T09:45:36.750Z,9.00
2022-08-23T09:48:08.815Z,9.40
2022-08-23T09:50:54.677Z,8.65
2022-08-23T09:53:28.240Z,10.43
2022-08-23T09:56:11.238Z,8.98
2022-08-23T09:58:43.473Z,8.48
2022-08-23T10:01:21.975Z,9.80
2022-08-23T10:04:12.801Z,9.13
2022-08-23T10:06:43.437Z,8.02
2022-08-23T10:09:25.124Z,8.50
2022-08-23T10:11:54.643Z,8.38
2022-08-23T10:14:28.810Z,7.70
2022-08-23T10:17:28.942Z,7.22
2022-08-23T10:20:10.276Z,8.02
2022-08-23T10:22:46.473Z,8.00
2022-08-23T10:25:34.504Z,8.82
2022-08-23T10:28:27.791Z,8.05
2022-08-23T10:31:03.569Z,7.70
2022-08-23T10:33:48.228Z,7.40
2022-08-23T10:36:22.043Z,7.82
2022-08-23T10:38:58.020Z,6.97
2022-08-23T10:41:47.460Z,7.80
2022-08-23T10:44:26.299Z,8.10
2022-08-23T10:47:07.442Z,7.50
2022-08-23T10:49:39.782Z,6.90
2022-08-23T10:52:14.476Z,7.68
2022-08-23T10:54:59.511Z,7.40
2022-08-23T10:57:34.224Z,7.28
2022-08-23T11:00:06.535Z,7.20
2022-08-23T11:02:45.654Z,7.28
2022-08-23T11:05:31.310Z,7.38
2022-08-23T11:08:05.793Z,7.90
2022-08-23T11:10:55.923Z,7.68
2022-08-23T11:13:35.138Z,7.15
2022-08-23T11:16:14.569Z,7.32
2022-08-23T11:18:47.288Z,7.90
2022-08-23T11:21:50.464Z,7.53
2022-08-23T11:24:52.539Z,7.80
2022-08-23T11:27:45.573Z,6.93
2022-08-23T11:30:47.754Z,7.78
2022-08-23T11:33:25.270Z,7.05
2022-08-23T11:36:16.767Z,7.47
2022-08-23T11:39:03.711Z,7.90
2022-08-23T11:44:26.040Z,6.88
2022-08-23T11:47:01.508Z,7.18
2022-08-23T11:50:01.211Z,7.03
2022-08-23T11:52:56.266Z,6.97
2022-08-23T11:56:02.264Z,6.30
2022-08-23T11:58:46.526Z,6.45
2022-08-23T12:01:17.850Z,5.45
2022-08-23T12:03:58.642Z,6.30
2022-08-23T12:06:50.684Z,5.50
2022-08-23T12:09:54.067Z,5.60
2022-08-23T12:12:34.702Z,5.28
2022-08-23T12:15:08.779Z,5.20
2022-08-23T12:18:13.389Z,6.13
2022-08-23T12:20:43.382Z,5.97
2022-08-23T12:23:21.981Z,6.28
2022-08-23T12:26:11.271Z,5.70
2022-08-23T12:28:49.338Z,5.45
2022-08-23T12:31:24.617Z,5.70
2022-08-23T12:34:04.723Z,5.67
2022-08-23T12:36:40.339Z,5.45
2022-08-23T12:39:15.925Z,6.63
2022-08-23T12:41:55.811Z,5.45
2022-08-23T12:44:28.277Z,5.40
2022-08-23T12:46:57.164Z,5.82
2022-08-23T12:49:29.011Z,5.90
2022-08-23T12:52:00.211Z,6.05
2022-08-23T12:54:37.357Z,5.80
2022-08-23T12:57:11.702Z,6.40
2022-08-23T12:59:46.510Z,6.15
2022-08-23T13:02:22.013Z,6.60
2022-08-23T13:04:50.808Z,5.85
2022-08-23T13:07:23.199Z,5.68
2022-08-23T13:09:55.325Z,5.68
2022-08-23T13:12:25.029Z,6.07
2022-08-23T13:14:57.490Z,5.32
2022-08-23T13:17:36.745Z,5.60
2022-08-23T13:20:25.329Z,5.57
2022-08-23T13:23:02.732Z,5.38
2022-08-23T13:25:34.186Z,5.63
2022-08-23T13:28:05.541Z,5.22
2022-08-23T13:30:37.866Z,5.95
2022-08-23T13:33:21.058Z,5.95
2022-08-23T13:35:51.672Z,5.55
2022-08-23T13:38:25.178Z,6.05
2022-08-23T13:40:58.850Z,5.45
2022-08-23T13:43:31.540Z,5.60
2022-08-23T13:46:11.891Z,5.07
2022-08-23T13:48:48.472Z,5.90
2022-08-23T13:51:37.074Z,5.00
2022-08-23T13:54:08.203Z,5.20
2022-08-23T13:56:39.361Z,4.93
2022-08-23T13:59:23.636Z,5.22
2022-08-23T14:01:57.263Z,4.80
2022-08-23T14:04:25.672Z,5.10
2022-08-23T14:06:54.379Z,5.88
2022-08-23T14:09:22.858Z,5.38
2022-08-23T14:11:56.088Z,5.18
2022-08-23T14:14:25.020Z,4.35
2022-08-23T14:16:54.539Z,5.38
2022-08-23T14:22:13.257Z,3.58
2022-08-23T14:24:42.343Z,6.25
2022-08-23T14:27:11.426Z,7.65
2022-08-23T14:29:39.958Z,6.85
2022-08-23T14:32:08.609Z,5.75
2022-08-23T14:34:38.418Z,6.25
2022-08-23T14:39:56.044Z,5.70
2022-08-23T14:42:25.260Z,5.15
2022-08-23T14:44:53.809Z,4.75
2022-08-23T14:47:22.239Z,4.68
2022-08-23T14:49:53.867Z,5.78
2022-08-23T14:52:23.161Z,5.38
2022-08-23T14:54:51.810Z,5.05
2022-08-23T14:57:20.644Z,5.18
2022-08-23T14:59:49.113Z,5.35
2022-08-23T15:02:24.622Z,5.63
2022-08-23T15:04:55.805Z,5.65
2022-08-23T15:07:24.386Z,5.47
2022-08-23T15:09:55.707Z,5.38
2022-08-23T15:15:22.053Z,5.85
2022-08-23T15:17:53.458Z,5.93
2022-08-23T15:20:25.591Z,5.47
2022-08-23T15:22:55.267Z,5.63
2022-08-23T15:25:24.993Z,4.50
2022-08-23T15:27:53.872Z,6.13
2022-08-23T15:30:23.690Z,5.72
2022-08-23T15:33:00.277Z,5.13
2022-08-23T15:35:32.006Z,5.18
2022-08-23T15:38:00.633Z,5.13
2022-08-23T15:40:29.079Z,5.45
2022-08-23T15:42:57.551Z,5.43
2022-08-23T15:45:26.087Z,5.70
2022-08-23T15:47:56.963Z,5.28
2022-08-23T15:50:31.165Z,5.15
2022-08-23T15:52:59.739Z,6.25
2022-08-23T15:55:32.449Z,5.43
2022-08-23T15:58:01.366Z,6.22
2022-08-23T16:00:30.328Z,6.22
2022-08-23T16:03:18.923Z,6.20
2022-08-23T16:05:52.191Z,5.65
2022-08-23T16:08:24.892Z,5.93
2022-08-23T16:10:53.600Z,6.45
2022-08-23T16:13:22.356Z,9.75
2022-08-23T16:15:51.554Z,10.63
2022-08-23T16:18:20.705Z,11.75
2022-08-23T16:20:54.088Z,11.85
2022-08-23T16:23:23.410Z,15.52
2022-08-23T16:25:52.958Z,14.57
2022-08-23T16:28:21.451Z,14.88
2022-08-23T16:30:50.159Z,14.52
2022-08-23T16:33:18.681Z,18.23
2022-08-23T16:35:47.075Z,18.65
2022-08-23T16:38:17.052Z,20.00
2022-08-23T16:40:45.501Z,19.23
2022-08-23T16:43:13.966Z,19.55
2022-08-23T16:45:42.460Z,21.40
2022-08-23T16:48:14.672Z,22.55
2022-08-23T16:50:43.915Z,25.70
2022-08-23T16:53:12.407Z,24.17
2022-08-23T16:55:42.214Z,26.55
2022-08-23T16:58:10.986Z,26.35
2022-08-23T17:00:39.695Z,30.85
2022-08-23T17:03:08.374Z,32.05
2022-08-23T17:05:37.724Z,32.65
2022-08-23T17:08:07.449Z,36.92
2022-08-23T17:10:35.998Z,39.03
2022-08-23T17:13:06.848Z,37.00
2022-08-23T17:15:38.339Z,38.50
2022-08-23T17:18:07.030Z,38.75
2022-08-23T17:20:39.146Z,39.25
2022-08-23T17:23:08.156Z,39.88
2022-08-23T17:25:38.075Z,42.15
2022-08-23T17:28:07.886Z,43.28
2022-08-23T17:30:36.345Z,38.30
2022-08-23T17:33:05.053Z,38.88
2022-08-23T17:35:34.417Z,38.00
2022-08-23T17:38:03.804Z,37.58
2022-08-23T17:40:35.577Z,37.63
2022-08-23T17:43:05.128Z,35.70
2022-08-23T17:45:41.375Z,36.35
2022-08-23T17:48:09.926Z,35.10
2022-08-23T17:50:39.528Z,37.38
2022-08-23T17:53:08.346Z,38.28
2022-08-23T17:55:37.800Z,36.20
2022-08-23T17:58:06.921Z,36.50
2022-08-23T18:00:39.496Z,37.35
2022-08-23T18:03:08.617Z,35.65
2022-08-23T18:05:41.209Z,34.38
2022-08-23T18:08:09.868Z,33.65
2022-08-23T18:10:38.272Z,31.83
2022-08-23T18:13:06.958Z,32.67
2022-08-23T18:15:37.742Z,31.38
2022-08-23T18:18:06.291Z,32.55
2022-08-23T18:20:35.012Z,32.17
2022-08-23T18:23:03.830Z,29.40
2022-08-23T18:25:32.579Z,29.52
2022-08-23T18:28:10.284Z,27.85
2022-08-23T18:30:45.912Z,26.10
2022-08-23T18:33:14.584Z,26.20
2022-08-23T18:35:44.270Z,26.88
2022-08-23T18:38:14.012Z,28.88
2022-08-23T18:40:47.419Z,27.15
2022-08-23T18:43:18.194Z,29.17
2022-08-23T18:45:49.761Z,25.67
2022-08-23T18:48:19.642Z,28.52
2022-08-23T18:50:49.835Z,27.05
2022-08-23T18:53:19.633Z,28.35
2022-08-23T18:55:50.016Z,27.65
2022-08-23T18:58:19.232Z,25.83
2022-08-23T19:00:51.800Z,25.92
2022-08-23T19:03:20.617Z,25.40
2022-08-23T19:05:49.563Z,29.40
2022-08-23T19:08:19.461Z,26.67
2022-08-23T19:10:48.416Z,27.17
2022-08-23T19:13:17.081Z,27.88
2022-08-23T19:15:45.499Z,27.40
2022-08-23T19:18:16.195Z,26.60
2022-08-23T19:20:44.717Z,25.95
2022-08-23T19:23:13.679Z,29.10
2022-08-23T19:25:45.398Z,27.48
2022-08-23T19:28:14.712Z,27.20
2022-08-23T19:30:43.804Z,26.67
2022-08-23T19:33:12.345Z,27.65
2022-08-23T19:35:42.455Z,26.88
2022-08-23T19:38:12.219Z,27.85
2022-08-23T19:40:40.873Z,26.42
2022-08-23T19:43:10.268Z,26.02
2022-08-23T19:45:41.216Z,26.20
2022-08-23T19:48:10.136Z,25.02
2022-08-23T19:50:40.292Z,25.60
2022-08-23T19:53:10.551Z,23.33
2022-08-23T19:55:41.836Z,25.02
2022-08-23T19:58:14.719Z,24.25
2022-08-23T20:00:44.108Z,23.30
2022-08-23T20:03:13.027Z,26.48
2022-08-23T20:05:42.194Z,24.65
2022-08-23T20:08:12.271Z,22.83
2022-08-23T20:10:41.049Z,24.70
2022-08-23T20:13:09.531Z,23.65
2022-08-23T20:15:39.747Z,24.80
2022-08-23T20:18:08.223Z,22.83
2022-08-23T20:20:36.658Z,23.98
2022-08-23T20:23:22.826Z,25.27
2022-08-23T20:25:52.725Z,22.33
2022-08-23T20:28:25.752Z,25.13
2022-08-23T20:30:54.903Z,23.50
2022-08-23T20:33:23.653Z,23.27
2022-08-23T20:35:52.063Z,22.88
2022-08-23T20:38:32.934Z,21.77
2022-08-23T20:41:03.638Z,20.88
2022-08-23T20:43:33.766Z,19.70
2022-08-23T20:46:04.054Z,18.05
2022-08-23T20:48:33.203Z,18.33
2022-08-23T20:51:01.997Z,17.13
2022-08-23T20:53:30.772Z,16.05
2022-08-23T20:56:00.038Z,13.48
2022-08-23T20:58:30.430Z,12.95
2022-08-23T21:00:59.178Z,17.13
2022-08-23T21:03:29.979Z,13.80
2022-08-23T21:06:05.237Z,11.90
2022-08-23T21:08:34.972Z,12.25
2022-08-23T21:11:07.564Z,11.80
2022-08-23T21:13:41.355Z,11.30
2022-08-23T21:16:10.128Z,11.50
2022-08-23T21:18:38.718Z,11.02
2022-08-23T21:21:07.879Z,10.32
2022-08-23T21:23:37.718Z,9.93
2022-08-23T21:26:07.770Z,9.77
2022-08-23T21:28:37.990Z,10.45
2022-08-23T21:31:07.847Z,9.75
2022-08-23T21:33:39.979Z,9.05
2022-08-23T21:36:09.223Z,9.20
2022-08-23T21:38:38.095Z,9.02
2022-08-23T21:41:10.402Z,8.85
2022-08-23T21:43:40.538Z,10.85
2022-08-23T21:46:09.115Z,11.13
2022-08-23T21:48:37.671Z,10.07
2022-08-23T21:51:06.229Z,9.55
2022-08-23T21:53:34.980Z,9.20
2022-08-23T21:56:03.423Z,8.23
2022-08-23T21:58:31.919Z,8.82
2022-08-23T22:01:01.929Z,8.70
2022-08-23T22:03:30.449Z,7.93
2022-08-23T22:05:58.949Z,8.30
2022-08-23T22:08:27.479Z,7.70
2022-08-23T22:10:57.269Z,8.00
2022-08-23T22:13:28.261Z,8.05
2022-08-23T22:15:56.824Z,8.40
2022-08-23T22:18:26.724Z,8.45
2022-08-23T22:20:55.362Z,7.50
2022-08-23T22:23:23.816Z,7.72
2022-08-23T22:25:52.325Z,12.75
2022-08-23T22:28:20.793Z,9.23
2022-08-23T22:30:49.279Z,8.52
2022-08-23T22:33:18.457Z,7.85
2022-08-23T22:35:49.024Z,8.27
2022-08-23T22:38:18.078Z,8.43
2022-08-23T22:40:50.086Z,7.97
2022-08-23T22:43:19.404Z,8.77
2022-08-23T22:45:52.203Z,9.38
2022-08-23T22:48:21.656Z,9.40
2022-08-23T22:50:51.985Z,9.90
2022-08-23T22:53:20.669Z,11.93
2022-08-23T22:55:52.576Z,11.05
2022-08-23T22:58:21.010Z,10.15
2022-08-23T23:00:49.390Z,9.30
2022-08-23T23:03:17.882Z,9.32
2022-08-23T23:05:46.624Z,9.13
2022-08-23T23:08:28.404Z,8.85
2022-08-23T23:10:58.311Z,8.15
2022-08-23T23:13:27.718Z,9.55
2022-08-23T23:15:57.729Z,8.27
2022-08-23T23:18:27.738Z,8.20
2022-08-23T23:20:59.663Z,8.82
2022-08-23T23:23:31.767Z,9.80
2022-08-23T23:26:00.398Z,7.53
2022-08-23T23:28:29.201Z,9.32
2022-08-23T23:30:59.501Z,9.52
2022-08-23T23:33:28.134Z,9.77
2022-08-23T23:35:57.341Z,10.43
2022-08-23T23:38:25.858Z,12.65
2022-08-23T23:40:55.669Z,12.60
2022-08-23T23:43:24.136Z,12.88
2022-08-23T23:45:52.693Z,11.98
2022-08-23T23:48:21.237Z,12.23
2022-08-23T23:50:49.757Z,12.70
2022-08-23T23:53:18.263Z,12.15
2022-08-23T23:55:48.232Z,17.60
2022-08-23T23:58:18.232Z,17.02
